Tropical Cyclones
[Index]
Main Index Home Page Stock Weather Photos Extreme Storms Discussion Storm News and Storm Chasing Reports Tropical Cyclones / Hurricanes / Typhoons Weather Data and Links Wild Fires / Bushfires Weather Observation Techniques Weather Picture Catalogue Tornado Pictures and Reports Stock Video Footage and DVDs for sale
Season 2003-2004 Tropical Cyclone FAY Track Map
Season 2003-2004 Summaries: [BoM-AU] [JTWC-AU] [JTWC-SIO] [JTWC-SPAC] [JTWC-SH]
<<- Previous TC | JTWC 2003-2004 Season | Next TC ->>

click for intensity scale information  Lat/long Grid: Show Hide

 Date Labels: Show Hide

Joint Typhoon Warning Centre Cyclone Data

Name: FAY

15 Mar 2004 00:00 UTC to 27 Mar 2004 18:00 UTC

    date/time    lat    long     hPa   cat  kts
2004-03-15 00   10.7   133.5    1004         20          
2004-03-15 06   10.7   132.3    1002         25          
2004-03-15 12   11.0   131.1    1000         25          
2004-03-15 18   11.3   130.3    1002         25          
2004-03-16 00   11.5   129.6    1000         30          
2004-03-16 06   11.7   128.9    1000         30          
2004-03-16 12   12.1   128.3    1000         30          
2004-03-16 18   11.9   127.6     997         35          
2004-03-17 00   11.8   128.0     997         35          
2004-03-17 06   12.1   127.5     997         35          
2004-03-17 12   12.3   127.0     997         35          
2004-03-17 18   12.7   126.9     991    1    45          
2004-03-18 00   13.0   126.9     984    2    55          
2004-03-18 00   13.0   126.9     984    2    55          
2004-03-18 06   13.1   126.6     976    2    65          
2004-03-18 06   13.1   126.6     976    2    65          
2004-03-18 12   13.1   126.3     972    2    70          
2004-03-18 12   13.1   126.3     972    2    70          
2004-03-18 12   13.1   126.3     972    2    70          
2004-03-18 18   13.0   125.9     967    3    75          
2004-03-18 18   13.0   125.9     967    3    75          
2004-03-18 18   13.0   125.9     967    3    75          
2004-03-19 00   12.7   125.8     967    3    75          
2004-03-19 00   12.7   125.8     967    3    75          
2004-03-19 00   12.7   125.8     967    3    75          
2004-03-19 06   12.7   125.5     963    3    80          
2004-03-19 06   12.7   125.5     963    3    80          
2004-03-19 06   12.7   125.5     963    3    80          
2004-03-19 12   12.8   125.2     954    3    90          
2004-03-19 12   12.8   125.2     954    3    90          
2004-03-19 12   12.8   125.2     954    3    90          
2004-03-19 18   13.0   125.0     954    3    90          
2004-03-19 18   13.0   125.0     954    3    90          
2004-03-19 18   13.0   125.0     954    3    90          
2004-03-20 00   13.1   124.7     954    3    90          
2004-03-20 00   13.1   124.7     954    3    90          
2004-03-20 00   13.1   124.7     954    3    90          
2004-03-20 06   13.1   124.3     954    3    90          
2004-03-20 06   13.1   124.3     954    3    90          
2004-03-20 06   13.1   124.3     954    3    90          
2004-03-20 12   13.4   124.0     954    3    90          
2004-03-20 12   13.4   124.0     954    3    90          
2004-03-20 12   13.4   124.0     954    3    90          
2004-03-20 18   13.5   123.6     944    4   100          
2004-03-20 18   13.5   123.6     944    4   100          
2004-03-20 18   13.5   123.6     944    4   100          
2004-03-21 00   13.6   123.1     944    4   100          
2004-03-21 00   13.6   123.1     944    4   100          
2004-03-21 00   13.6   123.1     944    4   100          
2004-03-21 06   13.8   122.6     927    4   115          
2004-03-21 06   13.8   122.6     927    4   115          
2004-03-21 06   13.8   122.6     927    4   115          
2004-03-21 06   13.8   122.6     927    4   115          
2004-03-21 12   13.9   122.1     922    4   120          
2004-03-21 12   13.9   122.1     922    4   120          
2004-03-21 12   13.9   122.1     922    4   120          
2004-03-21 12   13.9   122.1     922    4   120          
2004-03-21 18   14.0   121.6     922    4   120          
2004-03-21 18   14.0   121.6     922    4   120          
2004-03-21 18   14.0   121.6     922    4   120          
2004-03-21 18   14.0   121.6     922    4   120          
2004-03-22 00   13.8   121.2     927    4   115          
2004-03-22 00   13.8   121.2     927    4   115          
2004-03-22 00   13.8   121.2     927    4   115          
2004-03-22 00   13.8   121.2     927    4   115          
2004-03-22 06   13.7   120.8     927    4   115          
2004-03-22 06   13.7   120.8     927    4   115          
2004-03-22 06   13.7   120.8     927    4   115          
2004-03-22 06   13.7   120.8     927    4   115          
2004-03-22 12   13.9   120.5     927    4   115          
2004-03-22 12   13.9   120.5     927    4   115          
2004-03-22 12   13.9   120.5     927    4   115          
2004-03-22 12   13.9   120.5     927    4   115          
2004-03-22 18   14.1   120.4     927    4   115          
2004-03-22 18   14.1   120.4     927    4   115          
2004-03-22 18   14.1   120.4     927    4   115          
2004-03-22 18   14.1   120.4     927    4   115          
2004-03-23 00   14.3   120.5     933    4   110          
2004-03-23 00   14.3   120.5     933    4   110          
2004-03-23 00   14.3   120.5     933    4   110          
2004-03-23 00   14.3   120.5     933    4   110          
2004-03-23 06   14.4   120.8     944    4   100          
2004-03-23 06   14.4   120.8     944    4   100          
2004-03-23 06   14.4   120.8     944    4   100          
2004-03-23 06   14.4   120.8     944    4   100          
2004-03-23 12   14.6   121.1     954    3    90          
2004-03-23 12   14.6   121.1     954    3    90          
2004-03-23 12   14.6   121.1     954    3    90          
2004-03-23 18   15.0   121.3     954    3    90          
2004-03-23 18   15.0   121.3     954    3    90          
2004-03-23 18   15.0   121.3     954    3    90          
2004-03-24 00   15.4   121.3     963    3    80          
2004-03-24 00   15.4   121.3     963    3    80          
2004-03-24 00   15.4   121.3     963    3    80          
2004-03-24 06   15.7   121.7     967    3    75          
2004-03-24 06   15.7   121.7     967    3    75          
2004-03-24 06   15.7   121.7     967    3    75          
2004-03-24 12   16.2   121.7     967    3    75          
2004-03-24 12   16.2   121.7     967    3    75          
2004-03-24 12   16.2   121.7     967    3    75          
2004-03-24 18   16.6   121.7     967    3    75          
2004-03-24 18   16.6   121.7     967    3    75          
2004-03-24 18   16.6   121.7     967    3    75          
2004-03-25 00   17.0   121.6     967    3    75          
2004-03-25 00   17.0   121.6     967    3    75          
2004-03-25 00   17.0   121.6     967    3    75          
2004-03-25 06   17.4   121.5     967    3    75          
2004-03-25 06   17.4   121.5     967    3    75          
2004-03-25 06   17.4   121.5     967    3    75          
2004-03-25 12   17.8   121.1     963    3    80          
2004-03-25 12   17.8   121.1     963    3    80          
2004-03-25 12   17.8   121.1     963    3    80          
2004-03-25 18   18.0   120.5     958    3    85          
2004-03-25 18   18.0   120.5     958    3    85          
2004-03-25 18   18.0   120.5     958    3    85          
2004-03-26 00   18.2   120.2     954    3    90          
2004-03-26 00   18.2   120.2     954    3    90          
2004-03-26 00   18.2   120.2     954    3    90          
2004-03-26 06   18.5   120.0     949    3    95          
2004-03-26 06   18.5   120.0     949    3    95          
2004-03-26 06   18.5   120.0     949    3    95          
2004-03-26 12   18.9   120.0     944    4   100          
2004-03-26 12   18.9   120.0     944    4   100          
2004-03-26 12   18.9   120.0     944    4   100          
2004-03-26 18   19.3   120.0     927    4   115          
2004-03-26 18   19.3   120.0     927    4   115          
2004-03-26 18   19.3   120.0     927    4   115          
2004-03-26 18   19.3   120.0     927    4   115          
2004-03-27 00   19.8   120.0     933    4   110          
2004-03-27 00   19.8   120.0     933    4   110          
2004-03-27 00   19.8   120.0     933    4   110          
2004-03-27 00   19.8   120.0     933    4   110          
2004-03-27 06   20.4   120.0     938    4   105          
2004-03-27 06   20.4   120.0     938    4   105          
2004-03-27 06   20.4   120.0     938    4   105          
2004-03-27 12   21.1   120.1     944    4   100          
2004-03-27 12   21.1   120.1     944    4   100          
2004-03-27 12   21.1   120.1     944    4   100          
2004-03-27 18   21.4   120.9     972    2    70          
2004-03-27 18   21.4   120.9     972    2    70          
Winds are 1-min average.

Tropical cyclone tracks developed by Michael Bath using data from the Joint Typhoon Warning Centre Best Tracks and Google Maps.


[Australian Severe Weather index] [Copyright Notice] [Email Contacts] [Search This Site] [Privacy Policy]
Document: tropical_cyclone_fay.htm Updated: 28 June 2017